createdAt,value
2022-12-08T00:00:09.016Z,84.54
2022-12-08T00:02:44.510Z,84.39
2022-12-08T00:05:30.078Z,84.00
2022-12-08T00:08:15.353Z,83.96
2022-12-08T00:10:49.662Z,84.54
2022-12-08T00:13:16.863Z,85.04
2022-12-08T00:15:43.607Z,83.74
2022-12-08T00:18:10.395Z,84.34
2022-12-08T00:20:37.127Z,84.97
2022-12-08T00:23:04.520Z,82.19
2022-12-08T00:25:32.030Z,84.54
2022-12-08T00:27:58.822Z,84.16
2022-12-08T00:30:25.533Z,83.53
2022-12-08T00:32:52.259Z,83.07
2022-12-08T00:35:18.983Z,85.07
2022-12-08T00:37:45.676Z,84.92
2022-12-08T00:40:12.611Z,83.84
2022-12-08T00:42:39.436Z,83.13
2022-12-08T00:45:06.793Z,82.96
2022-12-08T00:47:33.582Z,83.02
2022-12-08T00:50:00.409Z,83.43
2022-12-08T00:52:27.256Z,82.99
2022-12-08T00:54:53.927Z,83.43
2022-12-08T00:57:21.733Z,84.11
2022-12-08T00:59:48.457Z,85.34
2022-12-08T01:02:15.407Z,85.13
2022-12-08T01:04:42.140Z,83.57
2022-12-08T01:07:09.219Z,83.89
2022-12-08T01:09:36.232Z,83.09
2022-12-08T01:12:02.994Z,83.02
2022-12-08T01:14:29.810Z,84.27
2022-12-08T01:16:56.674Z,83.69
2022-12-08T01:19:23.601Z,84.70
2022-12-08T01:21:50.318Z,84.56
2022-12-08T01:24:19.457Z,84.78
2022-12-08T01:26:46.485Z,85.79
2022-12-08T01:29:13.361Z,83.90
2022-12-08T01:31:40.184Z,85.08
2022-12-08T01:34:07.225Z,86.08
2022-12-08T01:36:37.299Z,85.31
2022-12-08T01:39:06.549Z,84.61
2022-12-08T01:41:37.567Z,85.25
2022-12-08T01:44:24.332Z,84.77
2022-12-08T01:46:52.067Z,84.85
2022-12-08T01:49:29.079Z,83.77
2022-12-08T01:52:11.983Z,84.38
2022-12-08T01:54:46.512Z,83.96
2022-12-08T01:57:20.712Z,84.14
2022-12-08T01:59:51.352Z,83.34
2022-12-08T02:02:18.245Z,83.32
2022-12-08T02:04:45.070Z,83.29
2022-12-08T02:07:12.634Z,83.24
2022-12-08T02:09:40.474Z,82.67
2022-12-08T02:12:07.781Z,83.11
2022-12-08T02:14:34.911Z,82.02
2022-12-08T02:17:22.272Z,82.77
2022-12-08T02:20:08.720Z,83.32
2022-12-08T02:23:01.814Z,83.83
2022-12-08T02:25:28.546Z,83.98
2022-12-08T02:28:27.912Z,84.58
2022-12-08T02:31:05.816Z,83.36
2022-12-08T02:34:00.395Z,84.96
2022-12-08T02:36:35.890Z,85.34
2022-12-08T02:39:19.150Z,86.86
2022-12-08T02:42:08.927Z,86.28
2022-12-08T02:44:41.456Z,84.99
2022-12-08T02:47:12.449Z,84.40
2022-12-08T02:49:39.263Z,84.10
2022-12-08T02:52:07.975Z,83.71
2022-12-08T02:54:35.660Z,83.98
2022-12-08T02:57:13.327Z,84.03
2022-12-08T02:59:50.749Z,84.36
2022-12-08T03:02:36.431Z,83.68
2022-12-08T03:05:21.490Z,86.17
2022-12-08T03:08:19.417Z,83.88
2022-12-08T03:10:52.587Z,85.33
2022-12-08T03:13:32.732Z,85.03
2022-12-08T03:16:01.709Z,83.64
2022-12-08T03:18:31.063Z,83.62
2022-12-08T03:20:58.309Z,82.89
2022-12-08T03:23:25.567Z,82.93
2022-12-08T03:26:05.349Z,82.78
2022-12-08T03:28:32.207Z,82.40
2022-12-08T03:31:03.112Z,85.71
2022-12-08T03:33:33.575Z,85.81
2022-12-08T03:36:01.950Z,83.72
2022-12-08T03:38:37.782Z,84.54
2022-12-08T03:41:19.633Z,84.17
2022-12-08T03:43:47.766Z,83.56
2022-12-08T03:46:19.358Z,83.50
2022-12-08T03:48:46.177Z,82.80
2022-12-08T03:51:13.201Z,82.74
2022-12-08T03:53:40.124Z,83.18
2022-12-08T03:56:15.838Z,83.26
2022-12-08T03:58:43.405Z,83.17
2022-12-08T04:01:10.755Z,83.43
2022-12-08T04:03:37.635Z,84.56
2022-12-08T04:06:04.580Z,83.81
2022-12-08T04:08:31.388Z,83.88
2022-12-08T04:10:58.179Z,84.74
2022-12-08T04:13:24.956Z,84.92
2022-12-08T04:15:51.792Z,84.94
2022-12-08T04:18:18.561Z,85.67
2022-12-08T04:20:46.038Z,85.80
2022-12-08T04:23:13.221Z,85.21
2022-12-08T04:25:40.402Z,85.67
2022-12-08T04:28:07.353Z,85.65
2022-12-08T04:30:34.589Z,86.03
2022-12-08T04:33:01.827Z,85.83
2022-12-08T04:35:28.771Z,85.60
2022-12-08T04:37:55.600Z,85.49
2022-12-08T04:40:22.544Z,84.53
2022-12-08T04:42:49.374Z,84.90
2022-12-08T04:45:16.224Z,85.16
2022-12-08T04:47:43.217Z,85.21
2022-12-08T04:50:10.364Z,85.68
2022-12-08T04:52:37.458Z,85.54
2022-12-08T04:55:04.621Z,86.23
2022-12-08T04:57:31.387Z,85.72
2022-12-08T04:59:58.227Z,85.34
2022-12-08T05:02:25.017Z,85.78
2022-12-08T05:04:51.848Z,85.57
2022-12-08T05:07:18.692Z,84.95
2022-12-08T05:09:45.426Z,84.82
2022-12-08T05:12:12.222Z,85.03
2022-12-08T05:14:38.973Z,85.24
2022-12-08T05:17:09.570Z,85.18
2022-12-08T05:19:36.709Z,84.56
2022-12-08T05:22:03.578Z,85.28
2022-12-08T05:24:30.373Z,85.24
2022-12-08T05:26:57.433Z,84.66
2022-12-08T05:29:24.363Z,84.71
2022-12-08T05:31:51.318Z,84.83
2022-12-08T05:34:18.165Z,84.91
2022-12-08T05:36:45.326Z,84.39
2022-12-08T05:39:15.073Z,84.32
2022-12-08T05:41:42.248Z,84.01
2022-12-08T05:44:09.184Z,84.38
2022-12-08T05:46:36.546Z,84.75
2022-12-08T05:49:04.119Z,84.92
2022-12-08T05:51:30.892Z,84.76
2022-12-08T05:53:58.167Z,84.73
2022-12-08T05:56:25.116Z,84.43
2022-12-08T05:58:51.954Z,84.45
2022-12-08T06:01:29.735Z,83.60
2022-12-08T06:03:58.453Z,84.22
2022-12-08T06:06:25.491Z,83.45
2022-12-08T06:08:53.111Z,83.66
2022-12-08T06:11:30.603Z,83.03
2022-12-08T06:13:57.634Z,83.26
2022-12-08T06:16:26.342Z,83.30
2022-12-08T06:18:53.193Z,83.43
2022-12-08T06:21:20.324Z,83.17
2022-12-08T06:23:51.789Z,83.70
2022-12-08T06:26:19.064Z,83.37
2022-12-08T06:28:45.815Z,82.87
2022-12-08T06:31:15.942Z,82.90
2022-12-08T06:33:43.223Z,82.80
2022-12-08T06:36:12.793Z,82.68
2022-12-08T06:38:43.316Z,82.24
2022-12-08T06:41:11.524Z,83.00
2022-12-08T06:43:38.385Z,83.67
2022-12-08T06:46:07.638Z,83.85
2022-12-08T06:48:34.636Z,83.58
2022-12-08T06:51:25.607Z,83.68
2022-12-08T06:53:52.446Z,84.22
2022-12-08T06:56:20.306Z,83.68
2022-12-08T06:58:52.075Z,83.76
2022-12-08T07:01:19.821Z,84.23
2022-12-08T07:03:47.802Z,83.20
2022-12-08T07:06:16.974Z,83.18
2022-12-08T07:08:43.773Z,82.66
2022-12-08T07:11:15.330Z,82.88
2022-12-08T07:13:46.278Z,83.10
2022-12-08T07:16:13.392Z,81.45
2022-12-08T07:18:41.612Z,79.12
2022-12-08T07:21:14.965Z,79.30
2022-12-08T07:23:42.532Z,80.59
2022-12-08T07:26:11.205Z,78.31
2022-12-08T07:28:39.447Z,77.52
2022-12-08T07:31:07.178Z,78.04
2022-12-08T07:33:36.061Z,76.10
2022-12-08T07:36:05.129Z,74.65
2022-12-08T07:38:32.215Z,73.30
2022-12-08T07:40:59.288Z,74.25
2022-12-08T07:43:26.087Z,70.84
2022-12-08T07:45:52.965Z,70.06
2022-12-08T07:48:19.862Z,69.33
2022-12-08T07:50:46.878Z,69.18
2022-12-08T07:53:13.897Z,67.36
2022-12-08T07:55:42.406Z,63.22
2022-12-08T07:58:09.076Z,58.83
2022-12-08T08:00:35.916Z,60.62
2022-12-08T08:03:03.031Z,63.26
2022-12-08T08:05:29.854Z,65.88
2022-12-08T08:07:56.725Z,65.53
2022-12-08T08:10:23.536Z,66.95
2022-12-08T08:12:50.307Z,67.27
2022-12-08T08:15:17.919Z,68.03
2022-12-08T08:17:45.057Z,67.96
2022-12-08T08:20:12.278Z,68.62
2022-12-08T08:22:39.139Z,70.00
2022-12-08T08:25:06.074Z,70.26
2022-12-08T08:27:32.840Z,69.96
2022-12-08T08:29:59.687Z,70.10
2022-12-08T08:32:26.468Z,70.85
2022-12-08T08:34:53.197Z,71.22
2022-12-08T08:37:19.967Z,70.82
2022-12-08T08:39:46.739Z,71.62
2022-12-08T08:42:13.493Z,70.52
2022-12-08T08:44:40.491Z,70.38
2022-12-08T08:47:07.622Z,71.08
2022-12-08T08:49:34.601Z,71.38
2022-12-08T08:52:01.941Z,70.80
2022-12-08T08:54:29.404Z,70.75
2022-12-08T08:56:57.778Z,70.93
2022-12-08T08:59:25.418Z,70.89
2022-12-08T09:01:52.580Z,70.90
2022-12-08T09:04:20.548Z,70.07
2022-12-08T09:06:48.191Z,70.25
2022-12-08T09:09:15.229Z,71.06
2022-12-08T09:11:42.310Z,70.59
2022-12-08T09:14:12.309Z,69.83
2022-12-08T09:16:42.393Z,69.91
2022-12-08T09:19:10.001Z,67.92
2022-12-08T09:21:36.795Z,66.75
2022-12-08T09:24:03.700Z,64.39
2022-12-08T09:26:30.477Z,65.08
2022-12-08T09:28:57.768Z,65.40
2022-12-08T09:31:25.198Z,64.83
2022-12-08T09:33:51.993Z,65.34
2022-12-08T09:36:19.019Z,64.13
2022-12-08T09:38:46.754Z,63.34
2022-12-08T09:41:39.180Z,61.74
2022-12-08T09:44:11.731Z,60.52
2022-12-08T09:46:38.990Z,58.39
2022-12-08T09:49:13.400Z,57.57
2022-12-08T09:51:42.213Z,55.97
2022-12-08T09:54:20.132Z,54.46
2022-12-08T09:56:47.710Z,54.35
2022-12-08T09:59:30.926Z,53.90
2022-12-08T10:01:58.005Z,52.85
2022-12-08T10:04:29.553Z,52.78
2022-12-08T10:07:43.957Z,51.95
2022-12-08T10:10:29.463Z,50.63
2022-12-08T10:13:08.151Z,49.02
2022-12-08T10:15:42.295Z,48.29
2022-12-08T10:18:18.548Z,45.29
2022-12-08T10:20:48.248Z,44.48
2022-12-08T10:23:35.305Z,43.35
2022-12-08T10:26:05.574Z,43.97
2022-12-08T10:28:33.832Z,41.21
2022-12-08T10:31:01.076Z,40.76
2022-12-08T10:33:29.606Z,41.06
2022-12-08T10:35:59.276Z,42.38
2022-12-08T10:38:34.476Z,42.74
2022-12-08T10:41:06.842Z,43.27
2022-12-08T10:43:34.504Z,43.34
2022-12-08T10:46:10.084Z,42.69
2022-12-08T10:48:37.518Z,41.74
2022-12-08T10:51:05.788Z,42.13
2022-12-08T10:53:34.389Z,41.97
2022-12-08T10:56:04.358Z,41.87
2022-12-08T10:58:36.922Z,42.30
2022-12-08T11:01:12.919Z,42.64
2022-12-08T11:03:44.980Z,43.58
2022-12-08T11:06:26.266Z,42.60
2022-12-08T11:08:55.404Z,43.43
2022-12-08T11:11:29.267Z,43.13
2022-12-08T11:13:56.624Z,43.02
2022-12-08T11:16:23.823Z,43.21
2022-12-08T11:18:58.589Z,43.01
2022-12-08T11:21:43.682Z,42.64
2022-12-08T11:24:16.619Z,42.42
2022-12-08T11:26:59.988Z,42.19
2022-12-08T11:29:28.749Z,41.94
2022-12-08T11:32:12.068Z,42.09
2022-12-08T11:34:55.678Z,42.58
2022-12-08T11:37:35.283Z,43.07
2022-12-08T11:40:07.061Z,43.96
2022-12-08T11:42:52.819Z,43.91
2022-12-08T11:45:26.927Z,43.61
2022-12-08T11:48:04.829Z,44.00
2022-12-08T11:50:43.896Z,43.95
2022-12-08T11:53:25.624Z,43.83
2022-12-08T11:55:57.379Z,44.27
2022-12-08T11:58:39.291Z,44.32
2022-12-08T12:01:06.116Z,44.28
2022-12-08T12:03:39.263Z,44.99
2022-12-08T12:09:14.284Z,46.04
2022-12-08T12:12:11.869Z,46.32
2022-12-08T12:14:54.396Z,47.21
2022-12-08T12:17:27.273Z,47.33
2022-12-08T12:19:54.345Z,47.25
2022-12-08T12:22:21.904Z,47.48
2022-12-08T12:24:50.586Z,46.75
2022-12-08T12:27:39.450Z,46.95
2022-12-08T12:30:09.280Z,47.59
2022-12-08T12:32:59.061Z,47.56
2022-12-08T12:35:31.914Z,46.33
2022-12-08T12:38:37.526Z,45.98
2022-12-08T12:41:05.672Z,45.50
2022-12-08T12:43:34.996Z,46.28
2022-12-08T12:46:23.925Z,46.34
2022-12-08T12:48:51.519Z,47.77
2022-12-08T12:51:36.590Z,47.62
2022-12-08T12:54:31.050Z,47.71
2022-12-08T12:57:12.962Z,47.00
2022-12-08T12:59:55.917Z,48.67
2022-12-08T13:02:30.116Z,48.62
2022-12-08T13:04:56.873Z,48.95
2022-12-08T13:07:29.219Z,48.96
2022-12-08T13:10:00.391Z,48.72
2022-12-08T13:12:28.264Z,48.72
2022-12-08T13:15:01.159Z,49.11
2022-12-08T13:17:30.127Z,49.88
2022-12-08T13:19:58.884Z,50.77
2022-12-08T13:22:49.448Z,50.92
2022-12-08T13:25:45.427Z,50.74
2022-12-08T13:28:22.514Z,51.33
2022-12-08T13:30:54.317Z,51.73
2022-12-08T13:33:35.302Z,52.24
2022-12-08T13:36:05.450Z,52.83
2022-12-08T13:38:35.576Z,52.82
2022-12-08T13:41:06.508Z,53.12
2022-12-08T13:43:51.087Z,52.49
2022-12-08T13:58:31.877Z,53.37
2022-12-08T14:01:17.751Z,54.00
2022-12-08T14:04:21.719Z,55.05
2022-12-08T14:06:38.175Z,55.46
2022-12-08T14:09:27.304Z,54.77
2022-12-08T14:12:01.346Z,55.40
2022-12-08T14:15:01.237Z,55.56
2022-12-08T14:17:23.028Z,55.99
2022-12-08T14:19:55.382Z,56.85
2022-12-08T14:22:22.362Z,58.33
2022-12-08T14:24:51.644Z,58.55
2022-12-08T14:27:21.214Z,59.14
2022-12-08T14:30:05.608Z,59.22
2022-12-08T14:32:39.335Z,59.20
2022-12-08T14:35:09.129Z,60.60
2022-12-08T14:37:42.564Z,61.19
2022-12-08T14:40:22.789Z,60.61
2022-12-08T14:43:12.554Z,61.35
2022-12-08T14:45:39.284Z,61.14
2022-12-08T14:48:30.946Z,61.26
2022-12-08T14:51:05.446Z,61.26
2022-12-08T14:53:44.136Z,61.34
2022-12-08T14:56:51.821Z,62.29
2022-12-08T14:59:30.359Z,63.76
2022-12-08T15:02:24.371Z,64.76
2022-12-08T15:05:04.030Z,64.71
2022-12-08T15:07:36.691Z,64.29
2022-12-08T15:10:15.633Z,65.20
2022-12-08T15:13:22.119Z,65.73
2022-12-08T15:15:58.328Z,66.06
2022-12-08T15:19:01.838Z,66.97
2022-12-08T15:21:31.021Z,68.06
2022-12-08T15:23:57.793Z,68.18
2022-12-08T15:26:26.495Z,68.32
2022-12-08T15:28:53.915Z,68.74
2022-12-08T15:31:21.042Z,68.31
2022-12-08T15:33:48.209Z,67.96
2022-12-08T15:36:15.001Z,68.24
2022-12-08T15:38:43.129Z,68.19
2022-12-08T15:41:14.615Z,68.80
2022-12-08T15:43:42.109Z,69.63
2022-12-08T15:46:08.855Z,69.75
2022-12-08T15:48:37.330Z,69.90
2022-12-08T15:51:04.177Z,69.55
2022-12-08T15:53:30.947Z,69.40
2022-12-08T15:58:54.654Z,71.60
2022-12-08T16:01:22.513Z,71.36
2022-12-08T16:09:31.294Z,72.60
2022-12-08T16:12:16.810Z,72.60
2022-12-08T16:15:47.257Z,72.50
2022-12-08T16:17:31.935Z,73.29
2022-12-08T16:19:59.551Z,72.51
2022-12-08T16:25:20.748Z,73.31
2022-12-08T16:28:01.390Z,73.19
2022-12-08T16:30:30.288Z,72.77
2022-12-08T16:32:57.101Z,73.40
2022-12-08T16:35:24.202Z,73.84
2022-12-08T16:37:50.968Z,73.78
2022-12-08T16:40:17.876Z,74.52
2022-12-08T16:42:45.881Z,74.13
2022-12-08T16:45:24.637Z,74.55
2022-12-08T16:47:54.114Z,74.57
2022-12-08T16:50:25.134Z,74.29
2022-12-08T16:52:57.738Z,74.40
2022-12-08T16:55:24.671Z,74.48
2022-12-08T16:57:51.581Z,74.41
2022-12-08T17:00:20.850Z,74.70
2022-12-08T17:02:48.093Z,74.83
2022-12-08T17:05:16.590Z,74.37
2022-12-08T17:07:44.742Z,74.09
2022-12-08T17:10:14.161Z,73.89
2022-12-08T17:12:41.536Z,74.07
2022-12-08T17:15:11.534Z,74.53
2022-12-08T17:17:39.459Z,74.17
2022-12-08T17:20:09.259Z,74.65
2022-12-08T17:22:36.284Z,74.95
2022-12-08T17:25:03.859Z,74.49
2022-12-08T17:27:30.738Z,75.37
2022-12-08T17:29:57.559Z,75.16
2022-12-08T17:32:24.557Z,75.69
2022-12-08T17:34:51.361Z,76.19
2022-12-08T17:37:18.813Z,75.89
2022-12-08T17:39:45.916Z,76.90
2022-12-08T17:42:12.697Z,76.66
2022-12-08T17:44:39.565Z,76.63
2022-12-08T17:47:06.462Z,76.72
2022-12-08T17:49:34.013Z,76.18
2022-12-08T17:52:03.415Z,76.54
2022-12-08T17:54:30.721Z,77.01
2022-12-08T17:56:58.799Z,77.04
2022-12-08T17:59:27.141Z,78.00
2022-12-08T18:01:55.145Z,78.22
2022-12-08T18:04:22.481Z,77.97
2022-12-08T18:06:49.277Z,78.83
2022-12-08T18:09:16.142Z,78.40
2022-12-08T18:11:43.702Z,78.82
2022-12-08T18:14:11.236Z,78.88
2022-12-08T18:16:40.374Z,78.25
2022-12-08T18:19:08.423Z,78.76
2022-12-08T18:21:35.647Z,78.11
2022-12-08T18:24:02.677Z,78.67
2022-12-08T18:26:30.756Z,77.75
2022-12-08T18:28:57.932Z,77.76
2022-12-08T18:31:25.009Z,78.13
2022-12-08T18:33:52.508Z,79.06
2022-12-08T18:36:22.773Z,78.19
2022-12-08T18:38:49.824Z,77.94
2022-12-08T18:41:21.945Z,77.55
2022-12-08T18:43:48.692Z,76.79
2022-12-08T18:46:15.826Z,77.53
2022-12-08T18:48:46.030Z,78.01
2022-12-08T18:51:21.555Z,78.29
2022-12-08T18:53:48.913Z,78.32
2022-12-08T18:56:24.430Z,78.74
2022-12-08T18:58:51.197Z,78.44
2022-12-08T19:01:18.163Z,79.56
2022-12-08T19:03:58.562Z,79.26
2022-12-08T19:06:32.097Z,79.72
2022-12-08T19:08:58.915Z,80.26
2022-12-08T19:11:28.140Z,80.49
2022-12-08T19:13:55.726Z,80.32
2022-12-08T19:16:23.177Z,81.17
2022-12-08T19:18:50.006Z,80.77
2022-12-08T19:21:17.030Z,82.24
2022-12-08T19:23:43.785Z,82.60
2022-12-08T19:26:11.465Z,83.11
2022-12-08T19:28:40.160Z,82.91
2022-12-08T19:31:08.140Z,83.95
2022-12-08T19:33:35.085Z,83.86
2022-12-08T19:36:12.018Z,83.62
2022-12-08T19:38:57.443Z,83.73
2022-12-08T19:41:43.906Z,83.77
2022-12-08T19:44:45.666Z,82.56
2022-12-08T19:47:12.617Z,82.31
2022-12-08T19:49:39.482Z,81.65
2022-12-08T19:52:06.953Z,81.14
2022-12-08T19:54:34.094Z,81.60
2022-12-08T19:57:01.830Z,81.73
2022-12-08T19:59:30.224Z,81.57
2022-12-08T20:01:58.218Z,81.06
2022-12-08T20:04:26.612Z,80.96
2022-12-08T20:06:54.547Z,80.65
2022-12-08T20:09:22.038Z,80.79
2022-12-08T20:11:50.781Z,80.23
2022-12-08T20:14:21.181Z,80.52
2022-12-08T20:16:48.122Z,80.44
2022-12-08T20:19:14.948Z,80.70
2022-12-08T20:21:41.694Z,80.84
2022-12-08T20:24:08.494Z,80.51
2022-12-08T20:26:35.466Z,80.49
2022-12-08T20:29:02.382Z,81.44
2022-12-08T20:31:30.726Z,81.58
2022-12-08T20:33:57.570Z,81.17
2022-12-08T20:36:24.484Z,81.21
2022-12-08T20:38:52.461Z,82.10
2022-12-08T20:41:19.856Z,82.04
2022-12-08T20:43:47.701Z,82.50
2022-12-08T20:46:16.459Z,82.88
2022-12-08T20:48:45.026Z,82.32
2022-12-08T20:51:17.462Z,81.71
2022-12-08T20:53:44.702Z,82.46
2022-12-08T20:56:19.499Z,82.09
2022-12-08T20:58:46.725Z,82.25
2022-12-08T21:01:15.748Z,82.05
2022-12-08T21:03:43.724Z,82.17
2022-12-08T21:06:10.961Z,81.96
2022-12-08T21:08:38.443Z,82.29
2022-12-08T21:11:05.645Z,82.11
2022-12-08T21:13:32.478Z,81.78
2022-12-08T21:15:59.508Z,82.03
2022-12-08T21:18:26.642Z,82.95
2022-12-08T21:21:01.613Z,82.66
2022-12-08T21:23:28.418Z,82.85
2022-12-08T21:25:55.299Z,82.36
2022-12-08T21:28:22.169Z,83.17
2022-12-08T21:30:49.045Z,82.75
2022-12-08T21:33:16.000Z,83.36
2022-12-08T21:35:43.151Z,82.58
2022-12-08T21:38:10.260Z,82.34
2022-12-08T21:40:37.359Z,82.17
2022-12-08T21:43:04.258Z,81.46
2022-12-08T21:45:31.175Z,82.37
2022-12-08T21:47:59.556Z,82.46
2022-12-08T21:50:27.649Z,82.48
2022-12-08T21:52:54.758Z,82.73
2022-12-08T21:55:23.851Z,83.64
2022-12-08T21:57:50.825Z,83.92
2022-12-08T22:00:18.533Z,83.58
2022-12-08T22:02:45.770Z,83.45
2022-12-08T22:05:13.033Z,83.40
2022-12-08T22:07:40.700Z,82.98
2022-12-08T22:10:08.950Z,84.13
2022-12-08T22:12:37.144Z,84.33
2022-12-08T22:15:06.039Z,83.74
2022-12-08T22:17:36.503Z,83.59
2022-12-08T22:20:06.157Z,83.05
2022-12-08T22:22:34.884Z,83.31
2022-12-08T22:25:03.640Z,82.12
2022-12-08T22:27:30.595Z,82.20
2022-12-08T22:29:57.521Z,81.76
2022-12-08T22:32:24.307Z,81.96
2022-12-08T22:34:51.301Z,82.03
2022-12-08T22:37:18.000Z,82.07
2022-12-08T22:39:44.990Z,82.97
2022-12-08T22:42:11.728Z,83.30
2022-12-08T22:44:38.448Z,83.71
2022-12-08T22:47:05.322Z,83.19
2022-12-08T22:49:32.060Z,84.03
2022-12-08T22:51:59.002Z,83.99
2022-12-08T22:54:26.708Z,83.18
2022-12-08T22:56:53.489Z,83.82
2022-12-08T22:59:20.240Z,85.34
2022-12-08T23:01:47.113Z,84.59
2022-12-08T23:04:17.695Z,84.80
2022-12-08T23:06:45.554Z,85.06
2022-12-08T23:09:12.688Z,85.83
2022-12-08T23:11:39.790Z,85.81
2022-12-08T23:14:06.610Z,86.36
2022-12-08T23:16:33.707Z,85.81
2022-12-08T23:19:00.948Z,84.95
2022-12-08T23:21:28.045Z,85.00
2022-12-08T23:23:54.800Z,84.55
2022-12-08T23:26:27.008Z,84.40
2022-12-08T23:28:55.063Z,84.17
2022-12-08T23:31:22.959Z,83.85
2022-12-08T23:33:50.355Z,84.40
2022-12-08T23:36:18.823Z,84.13
2022-12-08T23:38:46.380Z,84.83
2022-12-08T23:41:14.757Z,83.84
2022-12-08T23:43:46.734Z,83.26
2022-12-08T23:46:15.273Z,83.55
2022-12-08T23:48:42.284Z,83.95
2022-12-08T23:51:09.356Z,83.08
2022-12-08T23:53:36.288Z,83.62
2022-12-08T23:56:07.871Z,84.07
2022-12-08T23:58:35.593Z,83.43
